sensor_id;sensor_type;location;lat;lon;timestamp;noise_LAeq;noise_LA_min;noise_LA_max;noise_LA01;noise_LA95
69617;Laerm;58075;52.218;4.640;2022-08-03T00:00:09;39.76;36.78;43.48;;
69617;Laerm;58075;52.218;4.640;2022-08-03T00:00:24;39.22;36.28;45.28;;
69617;Laerm;58075;52.218;4.640;2022-08-03T00:00:37;39.35;35.83;44.55;;
69617;Laerm;58075;52.218;4.640;2022-08-03T00:00:47;37.49;35.26;39.80;;
69617;Laerm;58075;52.218;4.640;2022-08-03T00:00:57;37.58;35.31;40.04;;
69617;Laerm;58075;52.218;4.640;2022-08-03T00:01:08;38.01;34.83;40.90;;
69617;Laerm;58075;52.218;4.640;2022-08-03T00:01:18;38.48;34.49;41.81;;
69617;Laerm;58075;52.218;4.640;2022-08-03T00:01:28;36.81;34.19;39.44;;
69617;Laerm;58075;52.218;4.640;2022-08-03T00:01:39;38.31;34.91;43.48;;
69617;Laerm;58075;52.218;4.640;2022-08-03T00:01:50;38.77;35.52;43.39;;
69617;Laerm;58075;52.218;4.640;2022-08-03T00:02:00;38.20;36.08;40.80;;
69617;Laerm;58075;52.218;4.640;2022-08-03T00:02:12;44.60;37.06;53.67;;
69617;Laerm;58075;52.218;4.640;2022-08-03T00:02:23;39.81;37.60;42.76;;
69617;Laerm;58075;52.218;4.640;2022-08-03T00:02:33;39.61;35.68;44.38;;
69617;Laerm;58075;52.218;4.640;2022-08-03T00:02:43;40.05;37.24;44.67;;
69617;Laerm;58075;52.218;4.640;2022-08-03T00:02:54;40.51;37.41;43.23;;
69617;Laerm;58075;52.218;4.640;2022-08-03T00:03:04;40.69;37.85;44.07;;
69617;Laerm;58075;52.218;4.640;2022-08-03T00:03:14;39.10;36.48;41.07;;
69617;Laerm;58075;52.218;4.640;2022-08-03T00:03:25;37.99;36.16;39.87;;
69617;Laerm;58075;52.218;4.640;2022-08-03T00:03:35;38.04;35.60;40.37;;
69617;Laerm;58075;52.218;4.640;2022-08-03T00:03:45;37.88;35.68;39.91;;
69617;Laerm;58075;52.218;4.640;2022-08-03T00:03:56;38.98;36.11;45.72;;
69617;Laerm;58075;52.218;4.640;2022-08-03T00:04:07;42.17;36.41;50.06;;
69617;Laerm;58075;52.218;4.640;2022-08-03T00:04:17;39.12;36.00;44.20;;
69617;Laerm;58075;52.218;4.640;2022-08-03T00:04:27;38.93;35.33;42.36;;
69617;Laerm;58075;52.218;4.640;2022-08-03T00:04:38;39.76;37.07;44.24;;
69617;Laerm;58075;52.218;4.640;2022-08-03T00:04:48;39.40;35.94;46.45;;
69617;Laerm;58075;52.218;4.640;2022-08-03T00:04:58;38.35;35.58;43.66;;
69617;Laerm;58075;52.218;4.640;2022-08-03T00:05:08;38.89;36.14;41.74;;
69617;Laerm;58075;52.218;4.640;2022-08-03T00:05:19;39.09;35.94;41.81;;
69617;Laerm;58075;52.218;4.640;2022-08-03T00:05:29;38.08;35.55;40.87;;
69617;Laerm;58075;52.218;4.640;2022-08-03T00:05:42;38.11;35.74;41.41;;
69617;Laerm;58075;52.218;4.640;2022-08-03T00:05:52;36.39;34.62;38.12;;
69617;Laerm;58075;52.218;4.640;2022-08-03T00:06:02;37.21;35.29;40.23;;
69617;Laerm;58075;52.218;4.640;2022-08-03T00:06:13;38.18;34.89;42.75;;
69617;Laerm;58075;52.218;4.640;2022-08-03T00:06:23;38.36;34.41;45.32;;
69617;Laerm;58075;52.218;4.640;2022-08-03T00:06:33;37.79;35.28;41.57;;
69617;Laerm;58075;52.218;4.640;2022-08-03T00:06:44;36.74;34.21;38.91;;
69617;Laerm;58075;52.218;4.640;2022-08-03T00:06:54;37.67;35.49;39.97;;
69617;Laerm;58075;52.218;4.640;2022-08-03T00:07:04;38.51;36.23;43.06;;
69617;Laerm;58075;52.218;4.640;2022-08-03T00:07:15;41.91;36.56;50.57;;
69617;Laerm;58075;52.218;4.640;2022-08-03T00:07:25;40.46;36.64;44.98;;
69617;Laerm;58075;52.218;4.640;2022-08-03T00:07:35;40.07;37.41;43.57;;
69617;Laerm;58075;52.218;4.640;2022-08-03T00:07:47;39.04;36.51;41.96;;
69617;Laerm;58075;52.218;4.640;2022-08-03T00:07:58;37.44;35.32;39.18;;
69617;Laerm;58075;52.218;4.640;2022-08-03T00:08:08;38.86;36.32;46.69;;
69617;Laerm;58075;52.218;4.640;2022-08-03T00:08:19;43.07;36.18;51.07;;
69617;Laerm;58075;52.218;4.640;2022-08-03T00:08:29;38.16;35.80;40.63;;
69617;Laerm;58075;52.218;4.640;2022-08-03T00:08:40;38.27;35.04;40.90;;
69617;Laerm;58075;52.218;4.640;2022-08-03T00:08:50;38.37;35.90;41.78;;
69617;Laerm;58075;52.218;4.640;2022-08-03T00:09:01;39.02;36.30;43.30;;
69617;Laerm;58075;52.218;4.640;2022-08-03T00:09:11;38.53;35.39;41.62;;
69617;Laerm;58075;52.218;4.640;2022-08-03T00:09:22;40.54;36.56;44.12;;
69617;Laerm;58075;52.218;4.640;2022-08-03T00:09:32;39.41;37.07;42.36;;
69617;Laerm;58075;52.218;4.640;2022-08-03T00:09:42;38.30;35.26;41.61;;
69617;Laerm;58075;52.218;4.640;2022-08-03T00:09:53;38.35;35.72;40.81;;
69617;Laerm;58075;52.218;4.640;2022-08-03T00:10:03;37.64;35.62;40.33;;
69617;Laerm;58075;52.218;4.640;2022-08-03T00:10:13;38.52;35.22;40.95;;
69617;Laerm;58075;52.218;4.640;2022-08-03T00:10:24;38.73;35.65;41.99;;
69617;Laerm;58075;52.218;4.640;2022-08-03T00:10:35;38.58;36.22;41.54;;
69617;Laerm;58075;52.218;4.640;2022-08-03T00:10:45;38.74;36.68;41.19;;
69617;Laerm;58075;52.218;4.640;2022-08-03T00:10:56;37.96;35.19;40.29;;
69617;Laerm;58075;52.218;4.640;2022-08-03T00:11:06;41.14;37.38;45.55;;
69617;Laerm;58075;52.218;4.640;2022-08-03T00:11:16;38.61;36.36;41.57;;
69617;Laerm;58075;52.218;4.640;2022-08-03T00:11:27;38.41;35.36;42.78;;
69617;Laerm;58075;52.218;4.640;2022-08-03T00:11:37;37.82;35.08;40.24;;
69617;Laerm;58075;52.218;4.640;2022-08-03T00:11:47;38.68;36.24;43.75;;
69617;Laerm;58075;52.218;4.640;2022-08-03T00:11:58;41.00;35.56;45.54;;
69617;Laerm;58075;52.218;4.640;2022-08-03T00:12:08;37.42;35.42;40.24;;
69617;Laerm;58075;52.218;4.640;2022-08-03T00:12:19;36.19;33.92;38.40;;
69617;Laerm;58075;52.218;4.640;2022-08-03T00:12:29;36.34;34.20;39.16;;
69617;Laerm;58075;52.218;4.640;2022-08-03T00:12:39;38.35;35.47;41.68;;
69617;Laerm;58075;52.218;4.640;2022-08-03T00:12:50;37.93;35.93;40.10;;
69617;Laerm;58075;52.218;4.640;2022-08-03T00:13:00;38.81;35.50;41.64;;
69617;Laerm;58075;52.218;4.640;2022-08-03T00:13:10;38.54;34.92;43.68;;
69617;Laerm;58075;52.218;4.640;2022-08-03T00:13:22;36.39;33.82;40.07;;
69617;Laerm;58075;52.218;4.640;2022-08-03T00:13:32;37.56;35.03;40.86;;
69617;Laerm;58075;52.218;4.640;2022-08-03T00:13:43;36.56;33.93;38.76;;
69617;Laerm;58075;52.218;4.640;2022-08-03T00:13:53;36.57;34.47;39.18;;
69617;Laerm;58075;52.218;4.640;2022-08-03T00:14:04;37.23;34.93;40.80;;
69617;Laerm;58075;52.218;4.640;2022-08-03T00:14:14;36.88;34.67;39.24;;
69617;Laerm;58075;52.218;4.640;2022-08-03T00:14:25;36.09;33.67;38.04;;
69617;Laerm;58075;52.218;4.640;2022-08-03T00:14:35;38.48;34.20;44.89;;
69617;Laerm;58075;52.218;4.640;2022-08-03T00:14:45;41.44;35.97;47.58;;
69617;Laerm;58075;52.218;4.640;2022-08-03T00:14:55;38.50;35.89;41.67;;
69617;Laerm;58075;52.218;4.640;2022-08-03T00:15:07;38.40;36.20;41.03;;
69617;Laerm;58075;52.218;4.640;2022-08-03T00:15:17;38.65;35.58;41.10;;
69617;Laerm;58075;52.218;4.640;2022-08-03T00:15:28;37.99;35.24;40.18;;
69617;Laerm;58075;52.218;4.640;2022-08-03T00:15:39;40.03;36.24;44.78;;
69617;Laerm;58075;52.218;4.640;2022-08-03T00:15:49;38.64;35.61;43.90;;
69617;Laerm;58075;52.218;4.640;2022-08-03T00:16:00;38.70;35.72;41.69;;
69617;Laerm;58075;52.218;4.640;2022-08-03T00:16:10;39.84;35.52;46.18;;
69617;Laerm;58075;52.218;4.640;2022-08-03T00:16:20;38.93;34.92;47.61;;
69617;Laerm;58075;52.218;4.640;2022-08-03T00:16:31;39.84;35.63;45.57;;
69617;Laerm;58075;52.218;4.640;2022-08-03T00:16:41;39.79;35.62;43.06;;
69617;Laerm;58075;52.218;4.640;2022-08-03T00:16:51;40.88;36.57;46.59;;
69617;Laerm;58075;52.218;4.640;2022-08-03T00:17:02;39.16;35.27;44.95;;
69617;Laerm;58075;52.218;4.640;2022-08-03T00:17:12;37.79;34.93;41.45;;
69617;Laerm;58075;52.218;4.640;2022-08-03T00:17:22;37.45;34.77;40.77;;
69617;Laerm;58075;52.218;4.640;2022-08-03T00:17:33;38.04;35.21;40.43;;
69617;Laerm;58075;52.218;4.640;2022-08-03T00:17:43;37.50;35.47;39.61;;
69617;Laerm;58075;52.218;4.640;2022-08-03T00:17:54;40.15;36.68;44.66;;
69617;Laerm;58075;52.218;4.640;2022-08-03T00:18:04;38.03;36.09;41.93;;
69617;Laerm;58075;52.218;4.640;2022-08-03T00:18:14;39.47;36.58;42.75;;
69617;Laerm;58075;52.218;4.640;2022-08-03T00:18:24;38.45;35.79;42.61;;
69617;Laerm;58075;52.218;4.640;2022-08-03T00:18:35;37.41;35.44;39.72;;
69617;Laerm;58075;52.218;4.640;2022-08-03T00:18:45;36.58;33.57;39.24;;
69617;Laerm;58075;52.218;4.640;2022-08-03T00:18:56;37.21;34.86;42.06;;
69617;Laerm;58075;52.218;4.640;2022-08-03T00:19:06;38.87;35.69;44.14;;
69617;Laerm;58075;52.218;4.640;2022-08-03T00:19:16;38.27;35.58;41.18;;
69617;Laerm;58075;52.218;4.640;2022-08-03T00:19:27;39.70;36.25;43.61;;
69617;Laerm;58075;52.218;4.640;2022-08-03T00:19:37;40.25;36.56;44.11;;
69617;Laerm;58075;52.218;4.640;2022-08-03T00:19:47;38.41;34.54;42.78;;
69617;Laerm;58075;52.218;4.640;2022-08-03T00:19:57;41.38;35.90;47.05;;
69617;Laerm;58075;52.218;4.640;2022-08-03T00:20:08;40.40;37.41;43.96;;
69617;Laerm;58075;52.218;4.640;2022-08-03T00:20:18;38.99;36.37;41.84;;
69617;Laerm;58075;52.218;4.640;2022-08-03T00:20:28;38.55;36.22;41.48;;
69617;Laerm;58075;52.218;4.640;2022-08-03T00:20:39;38.35;35.80;40.77;;
69617;Laerm;58075;52.218;4.640;2022-08-03T00:20:49;39.30;36.02;41.90;;
69617;Laerm;58075;52.218;4.640;2022-08-03T00:20:59;38.68;35.71;41.88;;
69617;Laerm;58075;52.218;4.640;2022-08-03T00:21:10;38.59;35.53;42.70;;
69617;Laerm;58075;52.218;4.640;2022-08-03T00:21:20;37.89;35.22;40.04;;
69617;Laerm;58075;52.218;4.640;2022-08-03T00:21:30;38.96;36.10;41.60;;
69617;Laerm;58075;52.218;4.640;2022-08-03T00:21:41;38.90;36.73;42.17;;
69617;Laerm;58075;52.218;4.640;2022-08-03T00:21:51;37.57;35.64;39.41;;
69617;Laerm;58075;52.218;4.640;2022-08-03T00:22:01;38.27;35.41;41.74;;
69617;Laerm;58075;52.218;4.640;2022-08-03T00:22:12;37.24;34.27;40.94;;
69617;Laerm;58075;52.218;4.640;2022-08-03T00:22:22;38.32;35.45;41.62;;
69617;Laerm;58075;52.218;4.640;2022-08-03T00:22:33;38.34;35.09;41.77;;
69617;Laerm;58075;52.218;4.640;2022-08-03T00:22:44;37.03;34.56;39.19;;
69617;Laerm;58075;52.218;4.640;2022-08-03T00:22:54;37.31;35.22;42.63;;
69617;Laerm;58075;52.218;4.640;2022-08-03T00:23:04;37.72;35.48;40.48;;
69617;Laerm;58075;52.218;4.640;2022-08-03T00:23:15;37.32;34.59;40.22;;
69617;Laerm;58075;52.218;4.640;2022-08-03T00:23:25;38.01;35.65;41.35;;
69617;Laerm;58075;52.218;4.640;2022-08-03T00:23:36;38.52;36.17;40.92;;
69617;Laerm;58075;52.218;4.640;2022-08-03T00:23:46;37.15;34.51;39.55;;
69617;Laerm;58075;52.218;4.640;2022-08-03T00:23:57;36.93;34.74;39.86;;
69617;Laerm;58075;52.218;4.640;2022-08-03T00:24:07;38.19;34.46;42.22;;
69617;Laerm;58075;52.218;4.640;2022-08-03T00:24:17;37.60;34.26;42.05;;
69617;Laerm;58075;52.218;4.640;2022-08-03T00:24:28;35.76;33.73;37.67;;
69617;Laerm;58075;52.218;4.640;2022-08-03T00:24:40;35.45;33.13;37.59;;
69617;Laerm;58075;52.218;4.640;2022-08-03T00:24:50;35.96;33.74;38.66;;
69617;Laerm;58075;52.218;4.640;2022-08-03T00:25:00;38.06;34.45;42.11;;
69617;Laerm;58075;52.218;4.640;2022-08-03T00:25:10;39.87;35.09;45.21;;
69617;Laerm;58075;52.218;4.640;2022-08-03T00:25:21;38.18;35.36;41.64;;
69617;Laerm;58075;52.218;4.640;2022-08-03T00:25:32;38.23;35.61;40.61;;
69617;Laerm;58075;52.218;4.640;2022-08-03T00:25:42;40.27;35.92;46.40;;
69617;Laerm;58075;52.218;4.640;2022-08-03T00:25:52;38.92;35.43;42.76;;
69617;Laerm;58075;52.218;4.640;2022-08-03T00:26:03;37.14;34.80;40.30;;
69617;Laerm;58075;52.218;4.640;2022-08-03T00:26:13;37.48;35.08;40.60;;
69617;Laerm;58075;52.218;4.640;2022-08-03T00:26:23;38.19;35.80;41.45;;
69617;Laerm;58075;52.218;4.640;2022-08-03T00:26:34;37.04;34.98;40.05;;
69617;Laerm;58075;52.218;4.640;2022-08-03T00:26:44;37.55;35.26;40.09;;
69617;Laerm;58075;52.218;4.640;2022-08-03T00:26:54;38.17;34.97;43.80;;
69617;Laerm;58075;52.218;4.640;2022-08-03T00:27:05;38.48;34.95;44.56;;
69617;Laerm;58075;52.218;4.640;2022-08-03T00:27:15;36.87;34.42;40.15;;
69617;Laerm;58075;52.218;4.640;2022-08-03T00:27:25;37.71;35.27;39.91;;
69617;Laerm;58075;52.218;4.640;2022-08-03T00:27:36;37.81;35.12;40.95;;
69617;Laerm;58075;52.218;4.640;2022-08-03T00:27:46;38.00;35.21;42.59;;
69617;Laerm;58075;52.218;4.640;2022-08-03T00:27:56;37.57;34.31;41.96;;
69617;Laerm;58075;52.218;4.640;2022-08-03T00:28:07;36.16;34.41;38.09;;
69617;Laerm;58075;52.218;4.640;2022-08-03T00:28:17;36.95;34.17;39.62;;
69617;Laerm;58075;52.218;4.640;2022-08-03T00:28:28;38.66;34.37;43.92;;
69617;Laerm;58075;52.218;4.640;2022-08-03T00:28:38;38.00;35.30;41.01;;
69617;Laerm;58075;52.218;4.640;2022-08-03T00:28:49;38.76;36.41;41.53;;
69617;Laerm;58075;52.218;4.640;2022-08-03T00:28:59;40.23;35.47;44.48;;
69617;Laerm;58075;52.218;4.640;2022-08-03T00:29:09;39.95;37.73;42.81;;
69617;Laerm;58075;52.218;4.640;2022-08-03T00:29:20;41.40;36.95;45.91;;
69617;Laerm;58075;52.218;4.640;2022-08-03T00:29:30;43.21;38.66;50.58;;
69617;Laerm;58075;52.218;4.640;2022-08-03T00:29:41;41.29;36.54;45.65;;
69617;Laerm;58075;52.218;4.640;2022-08-03T00:29:51;42.36;37.76;47.25;;
69617;Laerm;58075;52.218;4.640;2022-08-03T00:30:02;40.77;38.17;44.85;;
69617;Laerm;58075;52.218;4.640;2022-08-03T00:30:12;45.40;39.05;49.98;;
69617;Laerm;58075;52.218;4.640;2022-08-03T00:30:22;39.80;35.94;46.50;;
69617;Laerm;58075;52.218;4.640;2022-08-03T00:30:33;38.99;36.57;41.46;;
69617;Laerm;58075;52.218;4.640;2022-08-03T00:30:43;39.37;35.95;41.47;;
69617;Laerm;58075;52.218;4.640;2022-08-03T00:30:53;37.44;34.69;41.06;;
69617;Laerm;58075;52.218;4.640;2022-08-03T00:31:05;38.28;35.90;41.35;;
69617;Laerm;58075;52.218;4.640;2022-08-03T00:31:15;38.39;36.02;41.09;;
69617;Laerm;58075;52.218;4.640;2022-08-03T00:31:26;37.90;35.29;41.13;;
69617;Laerm;58075;52.218;4.640;2022-08-03T00:31:36;37.00;34.02;39.63;;
69617;Laerm;58075;52.218;4.640;2022-08-03T00:31:46;37.67;34.54;40.26;;
69617;Laerm;58075;52.218;4.640;2022-08-03T00:31:57;40.97;36.26;45.94;;
69617;Laerm;58075;52.218;4.640;2022-08-03T00:32:07;38.39;35.53;41.67;;
69617;Laerm;58075;52.218;4.640;2022-08-03T00:32:18;38.67;36.22;41.09;;
69617;Laerm;58075;52.218;4.640;2022-08-03T00:32:28;38.43;34.74;41.90;;
69617;Laerm;58075;52.218;4.640;2022-08-03T00:32:38;37.99;34.93;40.75;;
69617;Laerm;58075;52.218;4.640;2022-08-03T00:32:49;39.16;36.73;44.67;;
69617;Laerm;58075;52.218;4.640;2022-08-03T00:32:59;39.33;36.54;42.29;;
69617;Laerm;58075;52.218;4.640;2022-08-03T00:33:09;39.23;37.01;41.72;;
69617;Laerm;58075;52.218;4.640;2022-08-03T00:33:20;43.02;36.58;49.12;;
69617;Laerm;58075;52.218;4.640;2022-08-03T00:33:31;39.94;36.88;43.26;;
69617;Laerm;58075;52.218;4.640;2022-08-03T00:33:41;40.06;37.60;43.25;;
69617;Laerm;58075;52.218;4.640;2022-08-03T00:33:51;41.96;37.97;45.52;;
69617;Laerm;58075;52.218;4.640;2022-08-03T00:34:02;44.65;38.52;52.34;;
69617;Laerm;58075;52.218;4.640;2022-08-03T00:34:12;39.07;35.78;42.26;;
69617;Laerm;58075;52.218;4.640;2022-08-03T00:34:22;38.74;36.18;41.70;;
69617;Laerm;58075;52.218;4.640;2022-08-03T00:34:33;37.77;36.01;40.20;;
69617;Laerm;58075;52.218;4.640;2022-08-03T00:34:43;38.67;35.04;43.68;;
69617;Laerm;58075;52.218;4.640;2022-08-03T00:34:53;39.26;35.16;43.44;;
69617;Laerm;58075;52.218;4.640;2022-08-03T00:35:04;39.88;36.43;42.61;;
69617;Laerm;58075;52.218;4.640;2022-08-03T00:35:14;38.16;35.64;41.36;;
69617;Laerm;58075;52.218;4.640;2022-08-03T00:35:24;38.50;35.87;40.82;;
69617;Laerm;58075;52.218;4.640;2022-08-03T00:35:35;39.41;36.83;43.08;;
69617;Laerm;58075;52.218;4.640;2022-08-03T00:35:45;42.03;37.46;45.60;;
69617;Laerm;58075;52.218;4.640;2022-08-03T00:35:56;40.76;37.49;44.38;;
69617;Laerm;58075;52.218;4.640;2022-08-03T00:36:06;43.15;38.39;49.18;;
69617;Laerm;58075;52.218;4.640;2022-08-03T00:36:16;38.12;35.63;41.18;;
69617;Laerm;58075;52.218;4.640;2022-08-03T00:36:27;39.15;37.01;42.24;;
69617;Laerm;58075;52.218;4.640;2022-08-03T00:36:37;39.79;36.57;44.71;;
69617;Laerm;58075;52.218;4.640;2022-08-03T00:36:47;42.48;39.37;45.59;;
69617;Laerm;58075;52.218;4.640;2022-08-03T00:36:57;39.61;36.72;42.31;;
69617;Laerm;58075;52.218;4.640;2022-08-03T00:37:08;38.78;35.77;41.88;;
69617;Laerm;58075;52.218;4.640;2022-08-03T00:37:18;38.69;35.73;41.44;;
69617;Laerm;58075;52.218;4.640;2022-08-03T00:37:28;39.84;36.54;46.99;;
69617;Laerm;58075;52.218;4.640;2022-08-03T00:37:38;40.12;35.17;46.69;;
69617;Laerm;58075;52.218;4.640;2022-08-03T00:37:49;37.32;34.89;41.18;;
69617;Laerm;58075;52.218;4.640;2022-08-03T00:37:59;37.99;35.41;40.25;;
69617;Laerm;58075;52.218;4.640;2022-08-03T00:38:09;39.43;35.67;46.00;;
69617;Laerm;58075;52.218;4.640;2022-08-03T00:38:20;40.67;37.54;45.48;;
69617;Laerm;58075;52.218;4.640;2022-08-03T00:38:30;41.64;37.24;48.20;;
69617;Laerm;58075;52.218;4.640;2022-08-03T00:38:40;37.78;34.80;41.61;;
69617;Laerm;58075;52.218;4.640;2022-08-03T00:38:51;36.94;34.87;39.03;;
69617;Laerm;58075;52.218;4.640;2022-08-03T00:39:01;37.75;35.70;39.91;;
69617;Laerm;58075;52.218;4.640;2022-08-03T00:39:11;38.47;34.71;43.47;;
69617;Laerm;58075;52.218;4.640;2022-08-03T00:39:21;38.00;34.18;41.75;;
69617;Laerm;58075;52.218;4.640;2022-08-03T00:39:32;37.69;35.28;40.34;;
69617;Laerm;58075;52.218;4.640;2022-08-03T00:39:42;39.18;35.84;41.61;;
69617;Laerm;58075;52.218;4.640;2022-08-03T00:39:54;39.37;35.05;43.58;;
69617;Laerm;58075;52.218;4.640;2022-08-03T00:40:05;38.76;36.59;41.20;;
69617;Laerm;58075;52.218;4.640;2022-08-03T00:40:16;39.73;37.17;42.74;;
69617;Laerm;58075;52.218;4.640;2022-08-03T00:40:26;39.44;36.17;42.63;;
69617;Laerm;58075;52.218;4.640;2022-08-03T00:40:37;38.55;36.40;40.75;;
69617;Laerm;58075;52.218;4.640;2022-08-03T00:40:47;39.73;36.32;42.77;;
69617;Laerm;58075;52.218;4.640;2022-08-03T00:40:57;38.03;35.61;42.43;;
69617;Laerm;58075;52.218;4.640;2022-08-03T00:41:08;37.26;34.97;39.40;;
69617;Laerm;58075;52.218;4.640;2022-08-03T00:41:18;36.76;34.62;38.90;;
69617;Laerm;58075;52.218;4.640;2022-08-03T00:41:28;35.98;33.71;38.51;;
69617;Laerm;58075;52.218;4.640;2022-08-03T00:41:39;36.27;33.72;39.26;;
69617;Laerm;58075;52.218;4.640;2022-08-03T00:41:49;37.14;33.97;39.62;;
69617;Laerm;58075;52.218;4.640;2022-08-03T00:42:03;39.87;36.65;43.38;;
69617;Laerm;58075;52.218;4.640;2022-08-03T00:42:13;40.43;36.43;43.69;;
69617;Laerm;58075;52.218;4.640;2022-08-03T00:42:24;38.56;36.06;41.09;;
69617;Laerm;58075;52.218;4.640;2022-08-03T00:42:34;42.34;37.64;46.95;;
69617;Laerm;58075;52.218;4.640;2022-08-03T00:42:55;39.16;35.94;42.93;;
69617;Laerm;58075;52.218;4.640;2022-08-03T00:43:06;39.34;35.92;43.12;;
69617;Laerm;58075;52.218;4.640;2022-08-03T00:43:17;38.42;35.81;41.48;;
69617;Laerm;58075;52.218;4.640;2022-08-03T00:43:27;36.65;34.31;39.95;;
69617;Laerm;58075;52.218;4.640;2022-08-03T00:43:37;35.87;33.84;38.16;;
69617;Laerm;58075;52.218;4.640;2022-08-03T00:43:48;36.69;33.34;40.06;;
69617;Laerm;58075;52.218;4.640;2022-08-03T00:43:58;35.48;32.87;39.58;;
69617;Laerm;58075;52.218;4.640;2022-08-03T00:44:08;35.67;33.49;38.20;;
69617;Laerm;58075;52.218;4.640;2022-08-03T00:44:19;39.90;33.57;47.43;;
69617;Laerm;58075;52.218;4.640;2022-08-03T00:44:29;38.95;34.16;46.57;;
69617;Laerm;58075;52.218;4.640;2022-08-03T00:44:40;38.25;34.64;41.92;;
69617;Laerm;58075;52.218;4.640;2022-08-03T00:44:51;37.35;34.28;40.87;;
69617;Laerm;58075;52.218;4.640;2022-08-03T00:45:01;38.61;35.34;43.97;;
69617;Laerm;58075;52.218;4.640;2022-08-03T00:45:11;36.82;35.04;38.81;;
69617;Laerm;58075;52.218;4.640;2022-08-03T00:45:23;36.49;34.57;38.90;;
69617;Laerm;58075;52.218;4.640;2022-08-03T00:45:37;37.56;34.76;42.03;;
69617;Laerm;58075;52.218;4.640;2022-08-03T00:45:47;38.33;35.10;43.63;;
69617;Laerm;58075;52.218;4.640;2022-08-03T00:45:58;38.62;35.66;43.15;;
69617;Laerm;58075;52.218;4.640;2022-08-03T00:46:08;38.52;35.36;42.63;;
69617;Laerm;58075;52.218;4.640;2022-08-03T00:46:18;38.51;34.88;42.51;;
69617;Laerm;58075;52.218;4.640;2022-08-03T00:46:31;36.21;34.13;38.73;;
69617;Laerm;58075;52.218;4.640;2022-08-03T00:46:41;36.38;34.40;38.45;;
69617;Laerm;58075;52.218;4.640;2022-08-03T00:46:51;36.08;33.44;40.14;;
69617;Laerm;58075;52.218;4.640;2022-08-03T00:47:02;37.16;33.82;40.69;;
69617;Laerm;58075;52.218;4.640;2022-08-03T00:47:12;37.54;34.84;39.95;;
69617;Laerm;58075;52.218;4.640;2022-08-03T00:47:22;37.96;35.95;40.25;;
69617;Laerm;58075;52.218;4.640;2022-08-03T00:47:32;38.84;36.59;41.54;;
69617;Laerm;58075;52.218;4.640;2022-08-03T00:47:43;37.93;34.99;40.63;;
69617;Laerm;58075;52.218;4.640;2022-08-03T00:47:54;37.15;34.41;39.45;;
69617;Laerm;58075;52.218;4.640;2022-08-03T00:48:05;36.47;33.51;38.79;;
69617;Laerm;58075;52.218;4.640;2022-08-03T00:48:15;37.78;34.38;41.59;;
69617;Laerm;58075;52.218;4.640;2022-08-03T00:48:26;38.70;35.64;41.93;;
69617;Laerm;58075;52.218;4.640;2022-08-03T00:48:36;38.14;34.04;40.68;;
69617;Laerm;58075;52.218;4.640;2022-08-03T00:48:49;38.02;35.16;40.29;;
69617;Laerm;58075;52.218;4.640;2022-08-03T00:49:00;38.46;35.08;42.71;;
69617;Laerm;58075;52.218;4.640;2022-08-03T00:49:11;37.91;35.39;40.69;;
69617;Laerm;58075;52.218;4.640;2022-08-03T00:49:21;37.16;34.68;40.57;;
69617;Laerm;58075;52.218;4.640;2022-08-03T00:49:32;40.09;35.02;45.31;;
69617;Laerm;58075;52.218;4.640;2022-08-03T00:49:42;38.77;35.03;42.58;;
69617;Laerm;58075;52.218;4.640;2022-08-03T00:49:52;37.98;34.97;40.69;;
69617;Laerm;58075;52.218;4.640;2022-08-03T00:50:03;37.47;34.89;40.08;;
69617;Laerm;58075;52.218;4.640;2022-08-03T00:50:14;38.61;36.52;41.88;;
69617;Laerm;58075;52.218;4.640;2022-08-03T00:50:26;43.08;37.87;46.83;;
69617;Laerm;58075;52.218;4.640;2022-08-03T00:50:39;39.73;36.45;43.12;;
69617;Laerm;58075;52.218;4.640;2022-08-03T00:50:50;40.93;36.97;44.93;;
69617;Laerm;58075;52.218;4.640;2022-08-03T00:51:02;40.48;36.44;43.83;;
69617;Laerm;58075;52.218;4.640;2022-08-03T00:51:12;38.61;35.39;43.49;;
69617;Laerm;58075;52.218;4.640;2022-08-03T00:51:22;39.46;36.25;43.80;;
69617;Laerm;58075;52.218;4.640;2022-08-03T00:51:33;38.94;36.18;41.50;;
69617;Laerm;58075;52.218;4.640;2022-08-03T00:51:43;39.84;36.92;45.08;;
69617;Laerm;58075;52.218;4.640;2022-08-03T00:51:53;38.90;34.44;44.18;;
69617;Laerm;58075;52.218;4.640;2022-08-03T00:52:04;41.92;34.40;51.82;;
69617;Laerm;58075;52.218;4.640;2022-08-03T00:52:15;42.24;37.20;47.12;;
69617;Laerm;58075;52.218;4.640;2022-08-03T00:52:26;41.07;37.33;47.08;;
69617;Laerm;58075;52.218;4.640;2022-08-03T00:52:36;40.87;36.46;47.52;;
69617;Laerm;58075;52.218;4.640;2022-08-03T00:52:47;39.98;36.15;45.65;;
69617;Laerm;58075;52.218;4.640;2022-08-03T00:52:58;37.11;34.70;40.39;;
69617;Laerm;58075;52.218;4.640;2022-08-03T00:53:09;38.62;35.25;43.98;;
69617;Laerm;58075;52.218;4.640;2022-08-03T00:53:21;36.47;34.13;41.04;;
69617;Laerm;58075;52.218;4.640;2022-08-03T00:53:31;37.38;34.47;40.38;;
69617;Laerm;58075;52.218;4.640;2022-08-03T00:53:43;36.81;34.27;41.13;;
69617;Laerm;58075;52.218;4.640;2022-08-03T00:53:54;38.08;34.19;41.76;;
69617;Laerm;58075;52.218;4.640;2022-08-03T00:54:05;38.13;35.59;40.70;;
69617;Laerm;58075;52.218;4.640;2022-08-03T00:54:15;38.04;35.58;42.81;;
69617;Laerm;58075;52.218;4.640;2022-08-03T00:54:25;37.84;34.26;41.56;;
69617;Laerm;58075;52.218;4.640;2022-08-03T00:54:36;37.28;34.98;40.52;;
69617;Laerm;58075;52.218;4.640;2022-08-03T00:54:47;39.27;36.90;41.64;;
69617;Laerm;58075;52.218;4.640;2022-08-03T00:54:59;38.51;35.45;41.97;;
69617;Laerm;58075;52.218;4.640;2022-08-03T00:55:09;37.51;34.72;40.63;;
69617;Laerm;58075;52.218;4.640;2022-08-03T00:55:20;38.50;35.54;41.99;;
69617;Laerm;58075;52.218;4.640;2022-08-03T00:55:30;36.34;33.99;39.76;;
69617;Laerm;58075;52.218;4.640;2022-08-03T00:55:41;36.72;34.19;39.36;;
69617;Laerm;58075;52.218;4.640;2022-08-03T00:55:52;36.12;33.31;38.56;;
69617;Laerm;58075;52.218;4.640;2022-08-03T00:56:02;37.78;35.82;40.50;;
69617;Laerm;58075;52.218;4.640;2022-08-03T00:56:13;37.31;34.04;41.36;;
69617;Laerm;58075;52.218;4.640;2022-08-03T00:56:24;36.85;34.41;39.05;;
69617;Laerm;58075;52.218;4.640;2022-08-03T00:56:35;37.57;34.27;41.14;;
69617;Laerm;58075;52.218;4.640;2022-08-03T00:56:46;37.84;35.28;41.90;;
69617;Laerm;58075;52.218;4.640;2022-08-03T00:56:56;36.68;34.87;38.95;;
69617;Laerm;58075;52.218;4.640;2022-08-03T00:57:06;38.49;34.29;46.91;;
69617;Laerm;58075;52.218;4.640;2022-08-03T00:57:17;39.51;33.44;46.03;;
69617;Laerm;58075;52.218;4.640;2022-08-03T00:57:28;42.61;35.38;49.70;;
69617;Laerm;58075;52.218;4.640;2022-08-03T00:57:39;41.33;34.77;48.04;;
69617;Laerm;58075;52.218;4.640;2022-08-03T00:57:51;38.07;35.23;42.76;;
69617;Laerm;58075;52.218;4.640;2022-08-03T00:58:02;38.05;35.27;44.89;;
69617;Laerm;58075;52.218;4.640;2022-08-03T00:58:15;37.44;34.90;40.27;;
69617;Laerm;58075;52.218;4.640;2022-08-03T00:58:25;37.24;34.51;40.30;;
69617;Laerm;58075;52.218;4.640;2022-08-03T00:58:36;37.13;34.38;40.15;;
69617;Laerm;58075;52.218;4.640;2022-08-03T00:58:46;37.26;35.24;39.21;;
69617;Laerm;58075;52.218;4.640;2022-08-03T00:58:56;37.66;35.03;41.35;;
69617;Laerm;58075;52.218;4.640;2022-08-03T00:59:08;42.84;36.68;48.20;;
69617;Laerm;58075;52.218;4.640;2022-08-03T00:59:19;42.81;35.95;51.41;;